sensor_id;sensor_type;location;lat;lon;timestamp;P1;durP1;ratioP1;P2;durP2;ratioP2
9188;SDS011;34313;50.780;6.084;2023-05-10T00:00:10;30.20;;;20.97;;
9188;SDS011;34313;50.780;6.084;2023-05-10T00:02:36;36.90;;;22.67;;
9188;SDS011;34313;50.780;6.084;2023-05-10T00:05:01;32.00;;;21.53;;
9188;SDS011;34313;50.780;6.084;2023-05-10T00:07:26;38.20;;;22.87;;
9188;SDS011;34313;50.780;6.084;2023-05-10T00:09:52;32.70;;;22.33;;
9188;SDS011;34313;50.780;6.084;2023-05-10T00:12:17;35.33;;;23.20;;
9188;SDS011;34313;50.780;6.084;2023-05-10T00:14:43;38.20;;;23.70;;
9188;SDS011;34313;50.780;6.084;2023-05-10T00:17:08;38.27;;;23.40;;
9188;SDS011;34313;50.780;6.084;2023-05-10T00:19:34;40.07;;;24.70;;
9188;SDS011;34313;50.780;6.084;2023-05-10T00:21:59;36.93;;;24.27;;
9188;SDS011;34313;50.780;6.084;2023-05-10T00:24:25;40.17;;;24.47;;
9188;SDS011;34313;50.780;6.084;2023-05-10T00:26:50;37.50;;;24.30;;
9188;SDS011;34313;50.780;6.084;2023-05-10T00:29:15;34.60;;;23.90;;
9188;SDS011;34313;50.780;6.084;2023-05-10T00:31:41;38.30;;;24.43;;
9188;SDS011;34313;50.780;6.084;2023-05-10T00:34:06;38.00;;;25.10;;
9188;SDS011;34313;50.780;6.084;2023-05-10T00:36:31;34.63;;;22.30;;
9188;SDS011;34313;50.780;6.084;2023-05-10T00:38:57;32.53;;;23.53;;
9188;SDS011;34313;50.780;6.084;2023-05-10T00:41:22;35.53;;;23.60;;
9188;SDS011;34313;50.780;6.084;2023-05-10T00:43:47;34.40;;;22.43;;
9188;SDS011;34313;50.780;6.084;2023-05-10T00:46:14;33.30;;;22.40;;
9188;SDS011;34313;50.780;6.084;2023-05-10T00:48:40;30.37;;;21.33;;
9188;SDS011;34313;50.780;6.084;2023-05-10T00:51:05;26.53;;;19.77;;
9188;SDS011;34313;50.780;6.084;2023-05-10T00:53:31;22.70;;;16.03;;
9188;SDS011;34313;50.780;6.084;2023-05-10T00:55:57;20.83;;;15.23;;
9188;SDS011;34313;50.780;6.084;2023-05-10T00:58:24;19.93;;;15.00;;
9188;SDS011;34313;50.780;6.084;2023-05-10T01:00:53;22.00;;;14.33;;
9188;SDS011;34313;50.780;6.084;2023-05-10T01:03:21;16.27;;;13.10;;
9188;SDS011;34313;50.780;6.084;2023-05-10T01:05:46;17.50;;;13.00;;
9188;SDS011;34313;50.780;6.084;2023-05-10T01:08:12;17.57;;;13.07;;
9188;SDS011;34313;50.780;6.084;2023-05-10T01:10:37;16.10;;;12.93;;
9188;SDS011;34313;50.780;6.084;2023-05-10T01:13:02;16.83;;;13.60;;
9188;SDS011;34313;50.780;6.084;2023-05-10T01:15:28;18.77;;;13.57;;
9188;SDS011;34313;50.780;6.084;2023-05-10T01:17:54;19.60;;;13.37;;
9188;SDS011;34313;50.780;6.084;2023-05-10T01:20:21;16.90;;;13.00;;
9188;SDS011;34313;50.780;6.084;2023-05-10T01:26:34;17.23;;;12.60;;
9188;SDS011;34313;50.780;6.084;2023-05-10T01:28:28;13.70;;;11.13;;
9188;SDS011;34313;50.780;6.084;2023-05-10T01:31:12;16.07;;;12.30;;
9188;SDS011;34313;50.780;6.084;2023-05-10T01:33:59;14.67;;;11.67;;
9188;SDS011;34313;50.780;6.084;2023-05-10T01:39:07;18.40;;;13.60;;
9188;SDS011;34313;50.780;6.084;2023-05-10T01:46:46;19.47;;;12.53;;
9188;SDS011;34313;50.780;6.084;2023-05-10T01:49:26;14.50;;;11.20;;
9188;SDS011;34313;50.780;6.084;2023-05-10T01:51:57;15.20;;;10.97;;
9188;SDS011;34313;50.780;6.084;2023-05-10T01:54:28;16.23;;;10.67;;
9188;SDS011;34313;50.780;6.084;2023-05-10T01:56:57;12.30;;;10.50;;
9188;SDS011;34313;50.780;6.084;2023-05-10T01:59:29;11.70;;;8.90;;
9188;SDS011;34313;50.780;6.084;2023-05-10T02:01:58;11.90;;;9.60;;
9188;SDS011;34313;50.780;6.084;2023-05-10T02:04:26;14.80;;;10.27;;
9188;SDS011;34313;50.780;6.084;2023-05-10T02:06:53;12.67;;;10.20;;
9188;SDS011;34313;50.780;6.084;2023-05-10T02:09:20;10.17;;;9.10;;
9188;SDS011;34313;50.780;6.084;2023-05-10T02:11:47;13.50;;;9.00;;
9188;SDS011;34313;50.780;6.084;2023-05-10T02:14:15;13.17;;;9.50;;
9188;SDS011;34313;50.780;6.084;2023-05-10T02:16:41;13.80;;;9.77;;
9188;SDS011;34313;50.780;6.084;2023-05-10T02:19:08;12.23;;;10.00;;
9188;SDS011;34313;50.780;6.084;2023-05-10T02:21:35;12.40;;;9.77;;
9188;SDS011;34313;50.780;6.084;2023-05-10T02:24:01;16.63;;;10.83;;
9188;SDS011;34313;50.780;6.084;2023-05-10T02:26:28;17.30;;;11.27;;
9188;SDS011;34313;50.780;6.084;2023-05-10T02:28:54;13.97;;;10.30;;
9188;SDS011;34313;50.780;6.084;2023-05-10T02:31:22;14.70;;;10.63;;
9188;SDS011;34313;50.780;6.084;2023-05-10T02:33:48;13.73;;;10.50;;
9188;SDS011;34313;50.780;6.084;2023-05-10T02:36:14;16.83;;;10.57;;
9188;SDS011;34313;50.780;6.084;2023-05-10T02:38:41;14.00;;;11.07;;
9188;SDS011;34313;50.780;6.084;2023-05-10T02:41:08;17.57;;;12.97;;
9188;SDS011;34313;50.780;6.084;2023-05-10T02:43:35;19.03;;;14.00;;
9188;SDS011;34313;50.780;6.084;2023-05-10T02:46:02;21.17;;;13.80;;
9188;SDS011;34313;50.780;6.084;2023-05-10T02:48:28;20.37;;;13.23;;
9188;SDS011;34313;50.780;6.084;2023-05-10T02:50:55;22.93;;;14.03;;
9188;SDS011;34313;50.780;6.084;2023-05-10T02:53:29;21.23;;;14.63;;
9188;SDS011;34313;50.780;6.084;2023-05-10T02:55:57;21.33;;;14.30;;
9188;SDS011;34313;50.780;6.084;2023-05-10T02:58:25;24.40;;;15.90;;
9188;SDS011;34313;50.780;6.084;2023-05-10T03:00:51;21.20;;;15.43;;
9188;SDS011;34313;50.780;6.084;2023-05-10T03:03:17;27.03;;;16.20;;
9188;SDS011;34313;50.780;6.084;2023-05-10T03:05:42;27.20;;;16.87;;
9188;SDS011;34313;50.780;6.084;2023-05-10T03:08:07;25.57;;;15.20;;
9188;SDS011;34313;50.780;6.084;2023-05-10T03:10:33;25.57;;;15.80;;
9188;SDS011;34313;50.780;6.084;2023-05-10T03:13:26;22.77;;;14.90;;
9188;SDS011;34313;50.780;6.084;2023-05-10T03:16:18;25.20;;;15.43;;
9188;SDS011;34313;50.780;6.084;2023-05-10T03:19:06;25.07;;;14.30;;
9188;SDS011;34313;50.780;6.084;2023-05-10T03:21:40;32.23;;;14.23;;
9188;SDS011;34313;50.780;6.084;2023-05-10T03:24:10;22.83;;;14.20;;
9188;SDS011;34313;50.780;6.084;2023-05-10T03:26:40;25.97;;;13.23;;
9188;SDS011;34313;50.780;6.084;2023-05-10T03:29:09;28.83;;;13.50;;
9188;SDS011;34313;50.780;6.084;2023-05-10T03:31:36;22.23;;;13.80;;
9188;SDS011;34313;50.780;6.084;2023-05-10T03:34:03;26.00;;;13.93;;
9188;SDS011;34313;50.780;6.084;2023-05-10T03:36:28;23.10;;;14.37;;
9188;SDS011;34313;50.780;6.084;2023-05-10T03:38:53;27.87;;;14.70;;
9188;SDS011;34313;50.780;6.084;2023-05-10T03:41:19;21.50;;;13.43;;
9188;SDS011;34313;50.780;6.084;2023-05-10T03:43:45;22.87;;;13.90;;
9188;SDS011;34313;50.780;6.084;2023-05-10T03:46:10;22.70;;;12.90;;
9188;SDS011;34313;50.780;6.084;2023-05-10T03:48:36;20.23;;;14.00;;
9188;SDS011;34313;50.780;6.084;2023-05-10T03:51:01;25.50;;;13.93;;
9188;SDS011;34313;50.780;6.084;2023-05-10T03:53:27;20.80;;;13.33;;
9188;SDS011;34313;50.780;6.084;2023-05-10T03:55:52;24.43;;;13.27;;
9188;SDS011;34313;50.780;6.084;2023-05-10T03:58:17;21.20;;;12.90;;
9188;SDS011;34313;50.780;6.084;2023-05-10T04:00:43;20.63;;;14.00;;
9188;SDS011;34313;50.780;6.084;2023-05-10T04:03:10;26.37;;;14.40;;
9188;SDS011;34313;50.780;6.084;2023-05-10T04:05:36;22.93;;;13.70;;
9188;SDS011;34313;50.780;6.084;2023-05-10T04:08:01;21.60;;;14.27;;
9188;SDS011;34313;50.780;6.084;2023-05-10T04:10:27;19.33;;;13.70;;
9188;SDS011;34313;50.780;6.084;2023-05-10T04:12:53;20.57;;;13.80;;
9188;SDS011;34313;50.780;6.084;2023-05-10T04:15:18;19.47;;;12.77;;
9188;SDS011;34313;50.780;6.084;2023-05-10T04:17:44;21.27;;;13.17;;
9188;SDS011;34313;50.780;6.084;2023-05-10T04:20:09;18.77;;;11.83;;
9188;SDS011;34313;50.780;6.084;2023-05-10T04:22:35;17.93;;;12.10;;
9188;SDS011;34313;50.780;6.084;2023-05-10T04:25:01;17.67;;;12.23;;
9188;SDS011;34313;50.780;6.084;2023-05-10T04:27:26;20.60;;;12.60;;
9188;SDS011;34313;50.780;6.084;2023-05-10T04:29:52;20.47;;;13.17;;
9188;SDS011;34313;50.780;6.084;2023-05-10T04:32:17;21.43;;;14.20;;
9188;SDS011;34313;50.780;6.084;2023-05-10T04:34:43;20.30;;;13.77;;
9188;SDS011;34313;50.780;6.084;2023-05-10T04:37:08;24.67;;;14.37;;
9188;SDS011;34313;50.780;6.084;2023-05-10T04:39:34;27.17;;;14.77;;
9188;SDS011;34313;50.780;6.084;2023-05-10T04:42:00;23.90;;;15.00;;
9188;SDS011;34313;50.780;6.084;2023-05-10T04:44:27;21.27;;;14.23;;
9188;SDS011;34313;50.780;6.084;2023-05-10T04:46:53;25.43;;;15.87;;
9188;SDS011;34313;50.780;6.084;2023-05-10T04:49:18;32.50;;;16.80;;
9188;SDS011;34313;50.780;6.084;2023-05-10T04:51:43;27.90;;;16.27;;
9188;SDS011;34313;50.780;6.084;2023-05-10T04:54:08;28.67;;;16.33;;
9188;SDS011;34313;50.780;6.084;2023-05-10T04:56:34;26.53;;;15.87;;
9188;SDS011;34313;50.780;6.084;2023-05-10T04:58:59;32.17;;;14.93;;
9188;SDS011;34313;50.780;6.084;2023-05-10T05:01:24;32.60;;;15.70;;
9188;SDS011;34313;50.780;6.084;2023-05-10T05:03:50;26.10;;;15.60;;
9188;SDS011;34313;50.780;6.084;2023-05-10T05:06:17;25.93;;;14.67;;
9188;SDS011;34313;50.780;6.084;2023-05-10T05:08:43;26.40;;;15.13;;
9188;SDS011;34313;50.780;6.084;2023-05-10T05:11:08;28.30;;;15.33;;
9188;SDS011;34313;50.780;6.084;2023-05-10T05:13:33;31.20;;;15.83;;
9188;SDS011;34313;50.780;6.084;2023-05-10T05:16:00;26.67;;;15.60;;
9188;SDS011;34313;50.780;6.084;2023-05-10T05:18:26;27.80;;;14.57;;
9188;SDS011;34313;50.780;6.084;2023-05-10T05:20:51;37.00;;;15.70;;
9188;SDS011;34313;50.780;6.084;2023-05-10T05:23:16;27.73;;;16.13;;
9188;SDS011;34313;50.780;6.084;2023-05-10T05:25:43;21.40;;;13.20;;
9188;SDS011;34313;50.780;6.084;2023-05-10T05:28:08;28.10;;;14.60;;
9188;SDS011;34313;50.780;6.084;2023-05-10T05:30:33;27.63;;;14.03;;
9188;SDS011;34313;50.780;6.084;2023-05-10T05:32:59;26.03;;;13.50;;
9188;SDS011;34313;50.780;6.084;2023-05-10T05:35:24;26.93;;;12.60;;
9188;SDS011;34313;50.780;6.084;2023-05-10T05:37:49;22.20;;;12.30;;
9188;SDS011;34313;50.780;6.084;2023-05-10T05:40:15;27.83;;;13.17;;
9188;SDS011;34313;50.780;6.084;2023-05-10T05:42:40;20.00;;;13.00;;
9188;SDS011;34313;50.780;6.084;2023-05-10T05:45:06;19.30;;;11.23;;
9188;SDS011;34313;50.780;6.084;2023-05-10T05:47:32;22.40;;;11.43;;
9188;SDS011;34313;50.780;6.084;2023-05-10T05:49:57;21.07;;;12.17;;
9188;SDS011;34313;50.780;6.084;2023-05-10T05:52:22;20.67;;;9.80;;
9188;SDS011;34313;50.780;6.084;2023-05-10T05:54:47;13.30;;;8.43;;
9188;SDS011;34313;50.780;6.084;2023-05-10T05:57:13;11.23;;;7.77;;
9188;SDS011;34313;50.780;6.084;2023-05-10T05:59:38;12.87;;;7.80;;
9188;SDS011;34313;50.780;6.084;2023-05-10T06:02:08;11.73;;;6.93;;
9188;SDS011;34313;50.780;6.084;2023-05-10T06:04:34;10.63;;;7.00;;
9188;SDS011;34313;50.780;6.084;2023-05-10T06:07:00;9.50;;;6.90;;
9188;SDS011;34313;50.780;6.084;2023-05-10T06:09:25;9.30;;;7.00;;
9188;SDS011;34313;50.780;6.084;2023-05-10T06:11:51;7.90;;;6.10;;
9188;SDS011;34313;50.780;6.084;2023-05-10T06:14:17;10.90;;;6.70;;
9188;SDS011;34313;50.780;6.084;2023-05-10T06:16:42;10.70;;;6.67;;
9188;SDS011;34313;50.780;6.084;2023-05-10T06:19:07;8.60;;;6.40;;
9188;SDS011;34313;50.780;6.084;2023-05-10T06:21:33;9.10;;;6.33;;
9188;SDS011;34313;50.780;6.084;2023-05-10T06:23:58;7.43;;;5.93;;
9188;SDS011;34313;50.780;6.084;2023-05-10T06:26:23;9.23;;;6.30;;
9188;SDS011;34313;50.780;6.084;2023-05-10T06:28:49;7.40;;;5.60;;
9188;SDS011;34313;50.780;6.084;2023-05-10T06:31:15;8.97;;;6.30;;
9188;SDS011;34313;50.780;6.084;2023-05-10T06:33:41;8.97;;;5.57;;
9188;SDS011;34313;50.780;6.084;2023-05-10T06:36:06;6.43;;;4.57;;
9188;SDS011;34313;50.780;6.084;2023-05-10T06:38:32;6.10;;;3.80;;
9188;SDS011;34313;50.780;6.084;2023-05-10T06:40:57;4.53;;;3.30;;
9188;SDS011;34313;50.780;6.084;2023-05-10T06:43:22;6.27;;;3.73;;
9188;SDS011;34313;50.780;6.084;2023-05-10T06:45:48;5.73;;;4.30;;
9188;SDS011;34313;50.780;6.084;2023-05-10T06:48:13;6.90;;;2.93;;
9188;SDS011;34313;50.780;6.084;2023-05-10T06:50:38;3.37;;;2.10;;
9188;SDS011;34313;50.780;6.084;2023-05-10T06:53:03;2.83;;;1.47;;
9188;SDS011;34313;50.780;6.084;2023-05-10T06:55:29;2.33;;;1.20;;
9188;SDS011;34313;50.780;6.084;2023-05-10T06:57:54;2.10;;;1.20;;
9188;SDS011;34313;50.780;6.084;2023-05-10T07:00:20;1.90;;;1.60;;
9188;SDS011;34313;50.780;6.084;2023-05-10T07:02:45;2.70;;;1.20;;
9188;SDS011;34313;50.780;6.084;2023-05-10T07:05:11;1.33;;;0.83;;
9188;SDS011;34313;50.780;6.084;2023-05-10T07:07:37;1.53;;;0.90;;
9188;SDS011;34313;50.780;6.084;2023-05-10T07:10:03;2.20;;;1.10;;
9188;SDS011;34313;50.780;6.084;2023-05-10T07:12:29;0.93;;;0.83;;
9188;SDS011;34313;50.780;6.084;2023-05-10T07:14:55;1.27;;;1.00;;
9188;SDS011;34313;50.780;6.084;2023-05-10T07:17:21;2.53;;;1.00;;
9188;SDS011;34313;50.780;6.084;2023-05-10T07:19:49;1.47;;;0.90;;
9188;SDS011;34313;50.780;6.084;2023-05-10T07:22:15;2.70;;;1.20;;
9188;SDS011;34313;50.780;6.084;2023-05-10T07:24:41;1.43;;;0.93;;
9188;SDS011;34313;50.780;6.084;2023-05-10T07:27:07;1.10;;;0.90;;
9188;SDS011;34313;50.780;6.084;2023-05-10T07:29:32;2.10;;;1.17;;
9188;SDS011;34313;50.780;6.084;2023-05-10T07:31:57;2.20;;;1.50;;
9188;SDS011;34313;50.780;6.084;2023-05-10T07:34:23;1.70;;;1.10;;
9188;SDS011;34313;50.780;6.084;2023-05-10T07:36:48;1.30;;;1.20;;
9188;SDS011;34313;50.780;6.084;2023-05-10T07:39:13;1.97;;;1.57;;
9188;SDS011;34313;50.780;6.084;2023-05-10T07:41:39;2.10;;;1.40;;
9188;SDS011;34313;50.780;6.084;2023-05-10T07:44:04;2.53;;;1.70;;
9188;SDS011;34313;50.780;6.084;2023-05-10T07:46:31;2.90;;;2.10;;
9188;SDS011;34313;50.780;6.084;2023-05-10T07:48:56;3.80;;;2.60;;
9188;SDS011;34313;50.780;6.084;2023-05-10T07:51:22;7.93;;;3.50;;
9188;SDS011;34313;50.780;6.084;2023-05-10T07:53:47;5.57;;;4.00;;
9188;SDS011;34313;50.780;6.084;2023-05-10T07:56:46;8.47;;;5.40;;
9188;SDS011;34313;50.780;6.084;2023-05-10T07:59:09;8.57;;;5.63;;
9188;SDS011;34313;50.780;6.084;2023-05-10T08:01:35;9.57;;;6.53;;
9188;SDS011;34313;50.780;6.084;2023-05-10T08:04:00;10.73;;;6.90;;
9188;SDS011;34313;50.780;6.084;2023-05-10T08:06:26;11.63;;;7.50;;
9188;SDS011;34313;50.780;6.084;2023-05-10T08:08:54;10.60;;;6.77;;
9188;SDS011;34313;50.780;6.084;2023-05-10T08:11:20;8.30;;;6.53;;
9188;SDS011;34313;50.780;6.084;2023-05-10T08:13:46;6.80;;;4.97;;
9188;SDS011;34313;50.780;6.084;2023-05-10T08:16:13;7.40;;;5.50;;
9188;SDS011;34313;50.780;6.084;2023-05-10T08:18:38;4.87;;;3.80;;
9188;SDS011;34313;50.780;6.084;2023-05-10T08:21:04;2.80;;;2.60;;
9188;SDS011;34313;50.780;6.084;2023-05-10T08:23:30;1.90;;;1.80;;
9188;SDS011;34313;50.780;6.084;2023-05-10T08:25:56;2.13;;;1.93;;
9188;SDS011;34313;50.780;6.084;2023-05-10T08:28:21;1.83;;;1.73;;
9188;SDS011;34313;50.780;6.084;2023-05-10T08:30:46;2.83;;;1.73;;
9188;SDS011;34313;50.780;6.084;2023-05-10T08:33:12;1.90;;;1.10;;
9188;SDS011;34313;50.780;6.084;2023-05-10T08:35:37;2.13;;;1.10;;
9188;SDS011;34313;50.780;6.084;2023-05-10T08:38:02;2.70;;;1.30;;
9188;SDS011;34313;50.780;6.084;2023-05-10T08:40:28;1.80;;;1.20;;
9188;SDS011;34313;50.780;6.084;2023-05-10T08:42:58;3.73;;;1.40;;
9188;SDS011;34313;50.780;6.084;2023-05-10T08:45:31;1.30;;;1.20;;
9188;SDS011;34313;50.780;6.084;2023-05-10T08:47:59;1.00;;;1.00;;
9188;SDS011;34313;50.780;6.084;2023-05-10T08:50:26;1.20;;;1.10;;
9188;SDS011;34313;50.780;6.084;2023-05-10T08:52:52;0.97;;;0.97;;
9188;SDS011;34313;50.780;6.084;2023-05-10T08:55:22;1.37;;;1.27;;
9188;SDS011;34313;50.780;6.084;2023-05-10T08:57:49;1.50;;;1.40;;
9188;SDS011;34313;50.780;6.084;2023-05-10T09:00:14;2.00;;;1.47;;
9188;SDS011;34313;50.780;6.084;2023-05-10T09:02:41;1.50;;;1.40;;
9188;SDS011;34313;50.780;6.084;2023-05-10T09:05:07;1.43;;;1.33;;
9188;SDS011;34313;50.780;6.084;2023-05-10T09:07:33;1.53;;;1.43;;
9188;SDS011;34313;50.780;6.084;2023-05-10T09:09:59;1.80;;;1.50;;
9188;SDS011;34313;50.780;6.084;2023-05-10T09:12:25;1.53;;;1.40;;
9188;SDS011;34313;50.780;6.084;2023-05-10T09:14:50;1.77;;;1.67;;
9188;SDS011;34313;50.780;6.084;2023-05-10T09:17:17;1.63;;;1.53;;
9188;SDS011;34313;50.780;6.084;2023-05-10T09:19:42;1.40;;;1.30;;
9188;SDS011;34313;50.780;6.084;2023-05-10T09:22:09;1.27;;;1.10;;
9188;SDS011;34313;50.780;6.084;2023-05-10T09:24:35;1.40;;;1.30;;
9188;SDS011;34313;50.780;6.084;2023-05-10T09:27:01;1.93;;;1.30;;
9188;SDS011;34313;50.780;6.084;2023-05-10T09:29:38;1.30;;;1.20;;
9188;SDS011;34313;50.780;6.084;2023-05-10T09:32:04;1.83;;;1.50;;
9188;SDS011;34313;50.780;6.084;2023-05-10T09:34:30;2.23;;;2.03;;
9188;SDS011;34313;50.780;6.084;2023-05-10T09:37:01;2.10;;;1.73;;
9188;SDS011;34313;50.780;6.084;2023-05-10T09:39:31;1.80;;;1.57;;
9188;SDS011;34313;50.780;6.084;2023-05-10T09:42:07;1.97;;;1.83;;
9188;SDS011;34313;50.780;6.084;2023-05-10T09:44:34;1.77;;;1.67;;
9188;SDS011;34313;50.780;6.084;2023-05-10T09:47:00;1.50;;;1.40;;
9188;SDS011;34313;50.780;6.084;2023-05-10T09:49:27;2.30;;;2.07;;
9188;SDS011;34313;50.780;6.084;2023-05-10T09:52:06;2.20;;;1.90;;
9188;SDS011;34313;50.780;6.084;2023-05-10T09:54:33;1.70;;;1.60;;
9188;SDS011;34313;50.780;6.084;2023-05-10T09:56:59;2.33;;;1.50;;
9188;SDS011;34313;50.780;6.084;2023-05-10T09:59:25;2.17;;;1.60;;
9188;SDS011;34313;50.780;6.084;2023-05-10T10:01:59;1.50;;;1.40;;
9188;SDS011;34313;50.780;6.084;2023-05-10T10:04:25;2.30;;;1.93;;
9188;SDS011;34313;50.780;6.084;2023-05-10T10:06:58;1.27;;;1.07;;
9188;SDS011;34313;50.780;6.084;2023-05-10T10:09:25;2.90;;;1.40;;
9188;SDS011;34313;50.780;6.084;2023-05-10T10:11:51;1.37;;;1.27;;
9188;SDS011;34313;50.780;6.084;2023-05-10T10:14:18;2.50;;;1.40;;
9188;SDS011;34313;50.780;6.084;2023-05-10T10:16:44;3.53;;;1.73;;
9188;SDS011;34313;50.780;6.084;2023-05-10T10:19:10;1.60;;;1.50;;
9188;SDS011;34313;50.780;6.084;2023-05-10T10:21:35;1.80;;;1.70;;
9188;SDS011;34313;50.780;6.084;2023-05-10T10:24:00;1.83;;;1.73;;
9188;SDS011;34313;50.780;6.084;2023-05-10T10:26:26;1.70;;;1.60;;
9188;SDS011;34313;50.780;6.084;2023-05-10T10:31:44;2.13;;;1.40;;
9188;SDS011;34313;50.780;6.084;2023-05-10T10:34:22;2.13;;;1.67;;
9188;SDS011;34313;50.780;6.084;2023-05-10T10:36:52;1.77;;;1.67;;
9188;SDS011;34313;50.780;6.084;2023-05-10T10:39:19;1.43;;;1.33;;
9188;SDS011;34313;50.780;6.084;2023-05-10T10:41:49;1.30;;;1.23;;
9188;SDS011;34313;50.780;6.084;2023-05-10T10:49:50;1.80;;;1.70;;
9188;SDS011;34313;50.780;6.084;2023-05-10T10:52:26;2.20;;;1.87;;
9188;SDS011;34313;50.780;6.084;2023-05-10T10:55:13;2.23;;;1.70;;
9188;SDS011;34313;50.780;6.084;2023-05-10T10:57:46;4.80;;;1.63;;
9188;SDS011;34313;50.780;6.084;2023-05-10T11:02:45;2.20;;;1.90;;
9188;SDS011;34313;50.780;6.084;2023-05-10T11:10:53;2.90;;;1.77;;
9188;SDS011;34313;50.780;6.084;2023-05-10T11:13:26;2.90;;;1.77;;
9188;SDS011;34313;50.780;6.084;2023-05-10T11:16:12;2.30;;;1.80;;
9188;SDS011;34313;50.780;6.084;2023-05-10T11:21:30;2.00;;;1.63;;
9188;SDS011;34313;50.780;6.084;2023-05-10T11:23:58;1.57;;;1.40;;
9188;SDS011;34313;50.780;6.084;2023-05-10T11:26:34;1.80;;;1.70;;
9188;SDS011;34313;50.780;6.084;2023-05-10T11:29:00;1.97;;;1.77;;
9188;SDS011;34313;50.780;6.084;2023-05-10T11:31:27;1.97;;;1.77;;
9188;SDS011;34313;50.780;6.084;2023-05-10T11:33:56;2.33;;;1.73;;
9188;SDS011;34313;50.780;6.084;2023-05-10T11:36:25;3.60;;;2.30;;
9188;SDS011;34313;50.780;6.084;2023-05-10T11:38:52;2.47;;;2.10;;
9188;SDS011;34313;50.780;6.084;2023-05-10T11:41:18;2.43;;;2.23;;
9188;SDS011;34313;50.780;6.084;2023-05-10T11:43:47;2.50;;;2.20;;
9188;SDS011;34313;50.780;6.084;2023-05-10T11:46:15;5.03;;;2.50;;
9188;SDS011;34313;50.780;6.084;2023-05-10T11:48:43;2.97;;;2.57;;
9188;SDS011;34313;50.780;6.084;2023-05-10T11:51:09;2.40;;;2.20;;
9188;SDS011;34313;50.780;6.084;2023-05-10T11:53:35;3.40;;;1.77;;
9188;SDS011;34313;50.780;6.084;2023-05-10T11:58:33;2.67;;;2.47;;
9188;SDS011;34313;50.780;6.084;2023-05-10T12:00:59;2.60;;;2.20;;
9188;SDS011;34313;50.780;6.084;2023-05-10T12:03:26;2.67;;;2.20;;
9188;SDS011;34313;50.780;6.084;2023-05-10T12:05:53;2.40;;;2.20;;
9188;SDS011;34313;50.780;6.084;2023-05-10T12:08:23;2.77;;;2.30;;
9188;SDS011;34313;50.780;6.084;2023-05-10T12:10:49;3.10;;;2.80;;
9188;SDS011;34313;50.780;6.084;2023-05-10T12:13:16;3.13;;;2.30;;
9188;SDS011;34313;50.780;6.084;2023-05-10T12:15:42;2.73;;;2.40;;
9188;SDS011;34313;50.780;6.084;2023-05-10T12:18:09;5.87;;;2.60;;
9188;SDS011;34313;50.780;6.084;2023-05-10T12:20:35;6.10;;;2.50;;
9188;SDS011;34313;50.780;6.084;2023-05-10T12:23:01;3.83;;;2.90;;
9188;SDS011;34313;50.780;6.084;2023-05-10T12:25:35;3.73;;;3.33;;
9188;SDS011;34313;50.780;6.084;2023-05-10T12:28:06;4.07;;;3.30;;
9188;SDS011;34313;50.780;6.084;2023-05-10T12:30:33;3.83;;;3.40;;
9188;SDS011;34313;50.780;6.084;2023-05-10T12:33:00;5.77;;;3.63;;
9188;SDS011;34313;50.780;6.084;2023-05-10T12:35:48;3.77;;;3.47;;
9188;SDS011;34313;50.780;6.084;2023-05-10T12:40:54;4.27;;;3.87;;
9188;SDS011;34313;50.780;6.084;2023-05-10T12:43:19;4.47;;;4.07;;
9188;SDS011;34313;50.780;6.084;2023-05-10T12:45:45;5.57;;;4.37;;
9188;SDS011;34313;50.780;6.084;2023-05-10T12:48:13;5.50;;;4.40;;
9188;SDS011;34313;50.780;6.084;2023-05-10T12:50:38;4.57;;;4.17;;
9188;SDS011;34313;50.780;6.084;2023-05-10T12:53:03;4.33;;;3.93;;
9188;SDS011;34313;50.780;6.084;2023-05-10T12:55:28;4.70;;;4.20;;
9188;SDS011;34313;50.780;6.084;2023-05-10T12:57:54;6.73;;;4.30;;
9188;SDS011;34313;50.780;6.084;2023-05-10T13:00:19;4.20;;;3.80;;
9188;SDS011;34313;50.780;6.084;2023-05-10T13:02:45;4.13;;;3.73;;
9188;SDS011;34313;50.780;6.084;2023-05-10T13:05:10;3.97;;;3.17;;
9188;SDS011;34313;50.780;6.084;2023-05-10T13:07:36;5.40;;;3.70;;
9188;SDS011;34313;50.780;6.084;2023-05-10T13:10:01;4.27;;;3.50;;
9188;SDS011;34313;50.780;6.084;2023-05-10T13:12:26;5.37;;;4.00;;
9188;SDS011;34313;50.780;6.084;2023-05-10T13:14:52;4.17;;;3.77;;
9188;SDS011;34313;50.780;6.084;2023-05-10T13:17:17;5.60;;;4.03;;
9188;SDS011;34313;50.780;6.084;2023-05-10T13:19:42;3.93;;;3.50;;
9188;SDS011;34313;50.780;6.084;2023-05-10T13:22:07;4.97;;;3.60;;
9188;SDS011;34313;50.780;6.084;2023-05-10T13:24:33;4.23;;;3.70;;
9188;SDS011;34313;50.780;6.084;2023-05-10T13:26:58;4.50;;;3.83;;
9188;SDS011;34313;50.780;6.084;2023-05-10T13:29:23;6.93;;;3.60;;
9188;SDS011;34313;50.780;6.084;2023-05-10T13:31:49;4.90;;;3.60;;
9188;SDS011;34313;50.780;6.084;2023-05-10T13:34:14;4.03;;;3.63;;
9188;SDS011;34313;50.780;6.084;2023-05-10T13:36:40;5.33;;;4.03;;
9188;SDS011;34313;50.780;6.084;2023-05-10T13:39:05;4.43;;;3.93;;
9188;SDS011;34313;50.780;6.084;2023-05-10T13:41:30;4.33;;;3.70;;
9188;SDS011;34313;50.780;6.084;2023-05-10T13:43:56;5.90;;;3.83;;
9188;SDS011;34313;50.780;6.084;2023-05-10T13:46:21;5.37;;;4.00;;
9188;SDS011;34313;50.780;6.084;2023-05-10T13:48:46;5.70;;;4.50;;
9188;SDS011;34313;50.780;6.084;2023-05-10T13:51:12;8.13;;;5.90;;
9188;SDS011;34313;50.780;6.084;2023-05-10T13:53:37;6.40;;;3.90;;
9188;SDS011;34313;50.780;6.084;2023-05-10T13:56:03;4.93;;;4.40;;
9188;SDS011;34313;50.780;6.084;2023-05-10T13:58:28;4.40;;;3.93;;
9188;SDS011;34313;50.780;6.084;2023-05-10T14:00:54;8.60;;;4.90;;
9188;SDS011;34313;50.780;6.084;2023-05-10T14:03:19;4.47;;;4.07;;
9188;SDS011;34313;50.780;6.084;2023-05-10T14:05:44;3.50;;;2.90;;
9188;SDS011;34313;50.780;6.084;2023-05-10T14:08:10;5.27;;;3.73;;
9188;SDS011;34313;50.780;6.084;2023-05-10T14:10:35;5.30;;;4.43;;
9188;SDS011;34313;50.780;6.084;2023-05-10T14:13:01;6.83;;;4.07;;
9188;SDS011;34313;50.780;6.084;2023-05-10T14:15:28;4.30;;;3.70;;
9188;SDS011;34313;50.780;6.084;2023-05-10T14:17:53;4.93;;;4.13;;
9188;SDS011;34313;50.780;6.084;2023-05-10T14:20:18;4.33;;;3.93;;
9188;SDS011;34313;50.780;6.084;2023-05-10T14:22:44;6.53;;;4.60;;
9188;SDS011;34313;50.780;6.084;2023-05-10T14:25:09;4.97;;;4.43;;
9188;SDS011;34313;50.780;6.084;2023-05-10T14:27:35;5.10;;;3.90;;
9188;SDS011;34313;50.780;6.084;2023-05-10T14:30:00;4.80;;;3.40;;
9188;SDS011;34313;50.780;6.084;2023-05-10T14:32:25;4.17;;;3.43;;
9188;SDS011;34313;50.780;6.084;2023-05-10T14:34:52;5.40;;;3.70;;
9188;SDS011;34313;50.780;6.084;2023-05-10T14:37:17;5.37;;;4.27;;
9188;SDS011;34313;50.780;6.084;2023-05-10T14:39:42;6.67;;;4.67;;
9188;SDS011;34313;50.780;6.084;2023-05-10T14:42:08;6.63;;;4.60;;
9188;SDS011;34313;50.780;6.084;2023-05-10T14:44:33;5.03;;;4.13;;
9188;SDS011;34313;50.780;6.084;2023-05-10T14:47:02;5.90;;;4.90;;
9188;SDS011;34313;50.780;6.084;2023-05-10T14:49:28;7.30;;;5.57;;
9188;SDS011;34313;50.780;6.084;2023-05-10T14:51:54;6.37;;;4.60;;
9188;SDS011;34313;50.780;6.084;2023-05-10T14:54:19;5.90;;;4.47;;
9188;SDS011;34313;50.780;6.084;2023-05-10T14:56:44;4.83;;;4.33;;
9188;SDS011;34313;50.780;6.084;2023-05-10T14:59:10;4.63;;;4.00;;
9188;SDS011;34313;50.780;6.084;2023-05-10T15:01:35;4.83;;;4.07;;
9188;SDS011;34313;50.780;6.084;2023-05-10T15:04:02;5.73;;;3.90;;
9188;SDS011;34313;50.780;6.084;2023-05-10T15:06:31;4.33;;;3.57;;
9188;SDS011;34313;50.780;6.084;2023-05-10T15:08:58;3.93;;;3.53;;
9188;SDS011;34313;50.780;6.084;2023-05-10T15:11:23;4.23;;;3.83;;
9188;SDS011;34313;50.780;6.084;2023-05-10T15:13:49;4.53;;;3.10;;
9188;SDS011;34313;50.780;6.084;2023-05-10T15:16:14;5.40;;;3.57;;
9188;SDS011;34313;50.780;6.084;2023-05-10T15:18:40;4.37;;;3.70;;
9188;SDS011;34313;50.780;6.084;2023-05-10T15:21:05;4.70;;;3.40;;
9188;SDS011;34313;50.780;6.084;2023-05-10T15:23:30;3.77;;;3.37;;